createdAt,value
2019-03-23T00:00:35.467Z,4.60
2019-03-23T00:01:35.418Z,5.00
2019-03-23T00:02:35.372Z,5.00
2019-03-23T00:03:35.334Z,5.10
2019-03-23T00:04:35.332Z,5.30
2019-03-23T00:05:35.237Z,5.40
2019-03-23T00:06:35.197Z,5.00
2019-03-23T00:07:35.188Z,5.20
2019-03-23T00:08:35.119Z,5.00
2019-03-23T00:09:35.082Z,5.00
2019-03-23T00:10:35.094Z,5.10
2019-03-23T00:11:34.994Z,5.00
2019-03-23T00:12:34.952Z,5.00
2019-03-23T00:13:34.903Z,5.10
2019-03-23T00:14:34.895Z,5.50
2019-03-23T00:15:34.829Z,4.90
2019-03-23T00:16:34.795Z,5.60
2019-03-23T00:17:34.734Z,5.60
2019-03-23T00:18:34.688Z,5.50
2019-03-23T00:19:34.679Z,4.90
2019-03-23T00:20:34.612Z,5.10
2019-03-23T00:21:34.572Z,5.10
2019-03-23T00:22:34.530Z,5.00
2019-03-23T00:23:34.490Z,4.90
2019-03-23T00:24:34.454Z,5.10
2019-03-23T00:25:34.414Z,5.00
2019-03-23T00:26:34.347Z,5.60
2019-03-23T00:27:34.333Z,5.10
2019-03-23T00:28:34.261Z,5.20
2019-03-23T00:29:34.224Z,5.60
2019-03-23T00:30:34.203Z,5.90
2019-03-23T00:31:34.135Z,5.30
2019-03-23T00:32:34.091Z,5.30
2019-03-23T00:33:34.056Z,6.00
2019-03-23T00:34:34.009Z,6.00
2019-03-23T00:35:34.005Z,5.80
2019-03-23T00:36:41.516Z,6.00
2019-03-23T00:37:33.873Z,6.50
2019-03-23T00:38:33.853Z,7.10
2019-03-23T00:39:33.787Z,6.90
2019-03-23T00:40:33.762Z,6.30
2019-03-23T00:41:33.706Z,6.90
2019-03-23T00:42:33.694Z,6.20
2019-03-23T00:43:33.625Z,6.20
2019-03-23T00:44:33.571Z,6.50
2019-03-23T00:45:33.531Z,6.40
2019-03-23T00:46:33.500Z,6.00
2019-03-23T00:47:33.455Z,6.90
2019-03-23T00:48:33.426Z,6.90
2019-03-23T00:49:33.356Z,6.80
2019-03-23T00:50:33.323Z,6.90
2019-03-23T00:51:33.275Z,7.00
2019-03-23T00:52:33.276Z,7.60
2019-03-23T00:53:33.197Z,7.30
2019-03-23T00:54:33.157Z,7.20
2019-03-23T00:55:33.109Z,7.40
2019-03-23T00:56:33.075Z,7.30
2019-03-23T00:57:33.015Z,6.60
2019-03-23T00:58:33.009Z,6.60
2019-03-23T00:59:32.956Z,6.30
2019-03-23T01:00:32.898Z,6.70
2019-03-23T01:01:32.852Z,6.80
2019-03-23T01:02:32.833Z,6.90
2019-03-23T01:03:32.755Z,7.30
2019-03-23T01:04:32.729Z,9.00
2019-03-23T01:05:32.684Z,8.70
2019-03-23T01:06:32.633Z,9.20
2019-03-23T01:07:32.590Z,9.20
2019-03-23T01:08:32.579Z,9.60
2019-03-23T01:09:32.498Z,9.80
2019-03-23T01:10:32.488Z,10.00
2019-03-23T01:11:32.410Z,9.30
2019-03-23T01:12:32.406Z,9.60
2019-03-23T01:13:32.334Z,8.90
2019-03-23T01:14:32.287Z,9.50
2019-03-23T01:15:32.246Z,8.60
2019-03-23T01:16:32.222Z,8.40
2019-03-23T01:17:32.165Z,9.50
2019-03-23T01:18:32.121Z,10.00
2019-03-23T01:19:32.097Z,10.30
2019-03-23T01:20:32.022Z,9.80
2019-03-23T01:21:32.016Z,10.20
2019-03-23T01:22:31.938Z,10.00
2019-03-23T01:23:31.894Z,10.10
2019-03-23T01:24:31.862Z,10.30
2019-03-23T01:25:31.875Z,10.70
2019-03-23T01:26:31.774Z,10.20
2019-03-23T01:27:31.760Z,12.10
2019-03-23T01:28:31.692Z,14.50
2019-03-23T01:29:31.641Z,14.60
2019-03-23T01:30:31.595Z,26.50
2019-03-23T01:31:31.554Z,27.10
2019-03-23T01:32:31.514Z,27.90
2019-03-23T01:33:31.510Z,29.20
2019-03-23T01:34:31.455Z,25.50
2019-03-23T01:35:31.372Z,30.40
2019-03-23T01:36:31.361Z,33.70
2019-03-23T01:37:31.303Z,36.30
2019-03-23T01:38:31.260Z,37.30
2019-03-23T01:39:31.217Z,37.00
2019-03-23T01:40:31.163Z,35.90
2019-03-23T01:41:31.145Z,39.90
2019-03-23T01:42:31.075Z,33.70
2019-03-23T01:43:31.034Z,42.00
2019-03-23T01:44:31.022Z,44.80
2019-03-23T01:45:30.964Z,48.50
2019-03-23T01:46:30.913Z,46.80
2019-03-23T01:47:30.862Z,47.20
2019-03-23T01:48:30.818Z,49.70
2019-03-23T01:49:30.774Z,50.90
2019-03-23T01:50:30.762Z,51.70
2019-03-23T01:51:30.691Z,52.80
2019-03-23T01:52:30.645Z,52.80
2019-03-23T01:53:30.621Z,53.10
2019-03-23T01:54:30.598Z,56.90
2019-03-23T01:55:30.515Z,60.10
2019-03-23T01:56:30.475Z,60.50
2019-03-23T01:57:30.456Z,62.70
2019-03-23T01:58:30.414Z,66.10
2019-03-23T01:59:30.375Z,66.20
2019-03-23T02:00:30.326Z,67.00
2019-03-23T02:01:30.255Z,68.40
2019-03-23T02:02:30.219Z,68.50
2019-03-23T02:03:30.169Z,67.50
2019-03-23T02:04:30.164Z,67.20
2019-03-23T02:05:30.089Z,69.30
2019-03-23T02:06:30.041Z,67.70
2019-03-23T02:07:29.994Z,69.50
2019-03-23T02:08:29.956Z,73.90
2019-03-23T02:09:29.918Z,78.20
2019-03-23T02:10:29.918Z,76.50
2019-03-23T02:11:29.823Z,81.50
2019-03-23T02:12:29.779Z,84.80
2019-03-23T02:13:29.749Z,90.60
2019-03-23T02:14:29.699Z,89.40
2019-03-23T02:15:29.675Z,91.20
2019-03-23T02:16:29.665Z,95.40
2019-03-23T02:17:29.566Z,96.40
2019-03-23T02:18:29.560Z,100.50
2019-03-23T02:19:29.492Z,97.60
2019-03-23T02:20:29.467Z,97.50
2019-03-23T02:21:29.390Z,96.30
2019-03-23T02:22:29.363Z,97.70
2019-03-23T02:23:29.312Z,101.10
2019-03-23T02:24:29.262Z,104.00
2019-03-23T02:25:29.215Z,103.10
2019-03-23T02:26:29.201Z,103.80
2019-03-23T02:27:29.139Z,104.50
2019-03-23T02:28:29.102Z,106.50
2019-03-23T02:29:29.055Z,108.30
2019-03-23T02:30:29.024Z,107.30
2019-03-23T02:31:28.992Z,105.30
2019-03-23T02:32:28.939Z,107.50
2019-03-23T02:33:28.871Z,108.90
2019-03-23T02:34:28.829Z,105.70
2019-03-23T02:35:28.788Z,105.40
2019-03-23T02:36:28.762Z,107.90
2019-03-23T02:37:28.729Z,109.10
2019-03-23T02:38:28.685Z,105.80
2019-03-23T02:39:28.611Z,108.00
2019-03-23T02:40:28.573Z,106.80
2019-03-23T02:41:28.534Z,105.40
2019-03-23T02:42:28.525Z,106.90
2019-03-23T02:43:28.447Z,107.50
2019-03-23T02:44:28.418Z,110.30
2019-03-23T02:45:30.361Z,110.70
2019-03-23T02:46:28.322Z,109.80
2019-03-23T02:47:28.266Z,108.80
2019-03-23T02:48:28.259Z,113.20
2019-03-23T02:49:28.193Z,110.50
2019-03-23T02:50:28.145Z,115.50
2019-03-23T02:51:28.106Z,113.70
2019-03-23T02:52:28.080Z,114.70
2019-03-23T02:53:28.020Z,113.20
2019-03-23T02:54:28.009Z,116.00
2019-03-23T02:55:27.974Z,117.70
2019-03-23T02:56:27.889Z,116.10
2019-03-23T02:57:27.869Z,119.20
2019-03-23T02:58:27.839Z,116.40
2019-03-23T02:59:27.793Z,118.00
2019-03-23T03:00:27.784Z,124.80
2019-03-23T03:01:27.672Z,127.20
2019-03-23T03:02:27.638Z,129.80
2019-03-23T03:03:27.596Z,128.40
2019-03-23T03:04:27.563Z,129.80
2019-03-23T03:05:27.506Z,125.70
2019-03-23T03:06:27.455Z,124.90
2019-03-23T03:07:40.646Z,127.60
2019-03-23T03:08:27.371Z,127.90
2019-03-23T03:09:27.353Z,129.50
2019-03-23T03:10:27.278Z,132.20
2019-03-23T03:11:27.240Z,131.10
2019-03-23T03:12:27.202Z,129.70
2019-03-23T03:13:27.160Z,127.50
2019-03-23T03:14:27.116Z,127.80
2019-03-23T03:15:27.106Z,127.70
2019-03-23T03:16:27.031Z,123.60
2019-03-23T03:17:26.979Z,116.30
2019-03-23T03:18:26.932Z,115.70
2019-03-23T03:19:26.910Z,114.50
2019-03-23T03:20:26.851Z,114.20
2019-03-23T03:21:26.836Z,110.10
2019-03-23T03:22:26.772Z,110.00
2019-03-23T03:23:26.727Z,111.00
2019-03-23T03:24:26.676Z,116.10
2019-03-23T03:25:26.635Z,110.80
2019-03-23T03:26:26.633Z,110.90
2019-03-23T03:27:26.555Z,113.00
2019-03-23T03:28:26.499Z,109.80
2019-03-23T03:29:26.497Z,106.60
2019-03-23T03:30:26.456Z,112.00
2019-03-23T03:31:26.436Z,112.00
2019-03-23T03:32:26.393Z,113.20
2019-03-23T03:33:26.291Z,112.90
2019-03-23T03:34:26.274Z,112.50
2019-03-23T03:35:26.205Z,110.90
2019-03-23T03:36:26.171Z,108.90
2019-03-23T03:37:26.196Z,107.60
2019-03-23T03:38:26.095Z,106.70
2019-03-23T03:39:26.032Z,108.60
2019-03-23T03:40:26.001Z,105.40
2019-03-23T03:41:25.969Z,104.50
2019-03-23T03:42:25.920Z,103.10
2019-03-23T03:43:25.883Z,105.60
2019-03-23T03:44:25.822Z,104.10
2019-03-23T03:45:25.781Z,105.70
2019-03-23T03:46:25.732Z,102.80
2019-03-23T03:47:25.700Z,104.40
2019-03-23T03:48:25.663Z,106.90
2019-03-23T03:49:25.620Z,106.10
2019-03-23T03:50:25.566Z,105.50
2019-03-23T03:51:25.512Z,104.00
2019-03-23T03:52:25.477Z,104.70
2019-03-23T03:53:25.455Z,104.10
2019-03-23T03:54:25.400Z,104.40
2019-03-23T03:55:25.360Z,106.60
2019-03-23T03:56:25.298Z,105.40
2019-03-23T03:57:25.266Z,105.00
2019-03-23T03:58:25.245Z,104.90
2019-03-23T03:59:25.171Z,104.60
2019-03-23T04:00:25.122Z,103.30
2019-03-23T04:01:25.100Z,101.80
2019-03-23T04:02:25.039Z,103.50
2019-03-23T04:03:25.019Z,103.30
2019-03-23T04:04:25.001Z,105.10
2019-03-23T04:05:24.918Z,103.90
2019-03-23T04:06:24.874Z,101.00
2019-03-23T04:07:24.833Z,104.30
2019-03-23T04:08:24.788Z,103.60
2019-03-23T04:09:24.739Z,99.70
2019-03-23T04:10:24.750Z,99.10
2019-03-23T04:11:24.652Z,100.90
2019-03-23T04:12:24.616Z,100.20
2019-03-23T04:13:24.581Z,100.70
2019-03-23T04:14:24.548Z,100.10
2019-03-23T04:15:24.490Z,102.60
2019-03-23T04:16:24.440Z,98.80
2019-03-23T04:17:24.404Z,98.70
2019-03-23T04:18:24.368Z,100.40
2019-03-23T04:19:24.349Z,99.20
2019-03-23T04:20:24.265Z,99.20
2019-03-23T04:21:24.224Z,94.80
2019-03-23T04:22:24.184Z,95.60
2019-03-23T04:23:24.148Z,96.00
2019-03-23T04:24:24.124Z,96.50
2019-03-23T04:25:24.085Z,93.50
2019-03-23T04:26:24.018Z,93.90
2019-03-23T04:27:23.980Z,94.30
2019-03-23T04:28:23.925Z,92.10
2019-03-23T04:29:23.880Z,94.80
2019-03-23T04:30:23.877Z,92.80
2019-03-23T04:31:23.813Z,93.20
2019-03-23T04:32:23.754Z,92.60
2019-03-23T04:33:23.708Z,93.80
2019-03-23T04:34:23.674Z,92.70
2019-03-23T04:35:23.622Z,94.80
2019-03-23T04:36:23.619Z,90.50
2019-03-23T04:37:23.555Z,92.50
2019-03-23T04:38:23.503Z,92.80
2019-03-23T04:39:23.460Z,94.10
2019-03-23T04:40:23.412Z,93.80
2019-03-23T04:41:23.394Z,95.20
2019-03-23T04:42:23.366Z,93.20
2019-03-23T04:43:23.285Z,95.10
2019-03-23T04:44:23.257Z,94.60
2019-03-23T04:45:23.205Z,94.90
2019-03-23T04:46:23.153Z,96.30
2019-03-23T04:47:23.135Z,94.50
2019-03-23T04:48:23.077Z,94.40
2019-03-23T04:49:23.029Z,93.60
2019-03-23T04:50:22.997Z,95.50
2019-03-23T04:51:22.947Z,95.60
2019-03-23T04:52:22.896Z,93.40
2019-03-23T04:53:22.877Z,91.10
2019-03-23T04:54:22.815Z,96.70
2019-03-23T04:55:22.770Z,95.30
2019-03-23T04:56:23.722Z,94.00
2019-03-23T04:57:22.708Z,93.10
2019-03-23T04:58:22.676Z,93.50
2019-03-23T04:59:22.637Z,93.20
2019-03-23T05:00:22.557Z,94.70
2019-03-23T05:01:22.523Z,94.80
2019-03-23T05:02:22.478Z,90.10
2019-03-23T05:03:22.439Z,92.90
2019-03-23T05:04:22.432Z,93.90
2019-03-23T05:05:22.344Z,91.50
2019-03-23T05:06:22.302Z,90.60
2019-03-23T05:07:22.258Z,92.30
2019-03-23T05:08:32.586Z,90.30
2019-03-23T05:09:22.178Z,90.50
2019-03-23T05:10:22.144Z,91.90
2019-03-23T05:11:22.092Z,90.70
2019-03-23T05:12:22.057Z,90.20
2019-03-23T05:13:22.000Z,90.40
2019-03-23T05:14:21.982Z,90.50
2019-03-23T05:15:21.927Z,89.80
2019-03-23T05:16:21.884Z,90.60
2019-03-23T05:17:21.837Z,89.10
2019-03-23T05:18:21.796Z,89.80
2019-03-23T05:19:21.773Z,89.00
2019-03-23T05:20:21.708Z,92.20
2019-03-23T05:21:21.669Z,91.60
2019-03-23T05:22:21.622Z,91.10
2019-03-23T05:23:21.588Z,90.50
2019-03-23T05:24:21.529Z,89.80
2019-03-23T05:25:21.515Z,89.20
2019-03-23T05:26:21.447Z,91.30
2019-03-23T05:27:21.427Z,90.40
2019-03-23T05:28:21.369Z,89.70
2019-03-23T05:29:21.325Z,89.20
2019-03-23T05:30:21.307Z,92.60
2019-03-23T05:31:21.241Z,90.90
2019-03-23T05:32:21.202Z,88.10
2019-03-23T05:33:21.151Z,90.60
2019-03-23T05:34:21.117Z,91.80
2019-03-23T05:35:21.091Z,91.30
2019-03-23T05:36:21.028Z,87.70
2019-03-23T05:37:20.983Z,86.90
2019-03-23T05:38:20.944Z,87.50
2019-03-23T05:39:20.901Z,89.10
2019-03-23T05:40:20.883Z,84.30
2019-03-23T05:41:20.827Z,86.90
2019-03-23T05:42:20.774Z,85.80
2019-03-23T05:43:20.732Z,87.40
2019-03-23T05:44:20.682Z,88.10
2019-03-23T05:45:20.697Z,87.40
2019-03-23T05:46:20.641Z,86.90
2019-03-23T05:47:20.570Z,84.40
2019-03-23T05:48:20.527Z,87.70
2019-03-23T05:49:20.478Z,89.30
2019-03-23T05:50:20.427Z,87.60
2019-03-23T05:51:20.421Z,86.70
2019-03-23T05:52:20.352Z,89.30
2019-03-23T05:53:20.331Z,87.50
2019-03-23T05:54:20.264Z,87.70
2019-03-23T05:55:20.229Z,87.90
2019-03-23T05:56:20.171Z,89.10
2019-03-23T05:57:20.157Z,89.20
2019-03-23T05:58:20.092Z,87.00
2019-03-23T05:59:20.053Z,88.10
2019-03-23T06:00:20.014Z,89.40
2019-03-23T06:01:19.994Z,92.60
2019-03-23T06:02:19.926Z,93.60
2019-03-23T06:03:19.891Z,90.10
2019-03-23T06:04:19.836Z,90.80
2019-03-23T06:05:19.792Z,90.20
2019-03-23T06:06:19.810Z,91.80
2019-03-23T06:07:19.736Z,90.20
2019-03-23T06:08:19.668Z,88.50
2019-03-23T06:09:19.623Z,87.90
2019-03-23T06:10:19.577Z,88.00
2019-03-23T06:11:19.557Z,90.20
2019-03-23T06:12:19.503Z,88.70
2019-03-23T06:13:19.460Z,87.70
2019-03-23T06:14:19.458Z,88.60
2019-03-23T06:15:19.375Z,88.60
2019-03-23T06:16:19.392Z,87.80
2019-03-23T06:17:19.283Z,86.40
2019-03-23T06:18:19.239Z,88.40
2019-03-23T06:19:19.202Z,88.30
2019-03-23T06:20:19.186Z,87.70
2019-03-23T06:21:19.171Z,89.10
2019-03-23T06:22:19.079Z,89.60
2019-03-23T06:23:19.030Z,88.40
2019-03-23T06:24:18.990Z,87.90
2019-03-23T06:25:18.994Z,86.40
2019-03-23T06:26:18.935Z,86.00
2019-03-23T06:27:18.867Z,86.20
2019-03-23T06:28:18.814Z,86.40
2019-03-23T06:29:18.775Z,87.70
2019-03-23T06:30:18.761Z,89.10
2019-03-23T06:31:18.687Z,87.20
2019-03-23T06:32:20.658Z,88.30
2019-03-23T06:33:18.615Z,86.70
2019-03-23T06:34:18.575Z,85.30
2019-03-23T06:35:18.528Z,86.00
2019-03-23T06:36:18.503Z,84.70
2019-03-23T06:37:18.434Z,85.60
2019-03-23T06:38:18.406Z,83.70
2019-03-23T06:39:18.360Z,82.90
2019-03-23T06:40:18.309Z,84.10
2019-03-23T06:41:18.287Z,86.30
2019-03-23T06:42:18.222Z,84.30
2019-03-23T06:43:18.180Z,82.50
2019-03-23T06:44:18.458Z,82.80
2019-03-23T06:45:18.113Z,82.10
2019-03-23T06:46:18.087Z,80.70
2019-03-23T06:47:18.015Z,83.20
2019-03-23T06:48:17.971Z,82.50
2019-03-23T06:49:17.925Z,80.90
2019-03-23T06:50:17.889Z,81.00
2019-03-23T06:51:17.847Z,82.00
2019-03-23T06:52:17.839Z,80.30
2019-03-23T06:53:17.767Z,80.90
2019-03-23T06:54:17.725Z,80.20
2019-03-23T06:55:17.680Z,78.70
2019-03-23T06:56:17.639Z,78.20
2019-03-23T06:57:17.599Z,80.90
2019-03-23T06:58:17.579Z,79.80
2019-03-23T06:59:17.510Z,80.60
2019-03-23T07:00:17.460Z,77.30
2019-03-23T07:01:17.425Z,79.10
2019-03-23T07:02:17.408Z,77.20
2019-03-23T07:03:17.337Z,78.00
2019-03-23T07:04:17.299Z,79.90
2019-03-23T07:05:17.268Z,77.70
2019-03-23T07:06:17.213Z,79.10
2019-03-23T07:07:17.175Z,78.60
2019-03-23T07:08:17.155Z,78.40
2019-03-23T07:09:17.081Z,77.20
2019-03-23T07:10:17.057Z,76.30
2019-03-23T07:11:17.003Z,76.30
2019-03-23T07:12:16.955Z,76.90
2019-03-23T07:13:16.911Z,76.40
2019-03-23T07:14:16.890Z,77.60
2019-03-23T07:15:20.253Z,76.90
2019-03-23T07:16:16.792Z,76.50
2019-03-23T07:17:16.752Z,73.90
2019-03-23T07:18:16.712Z,77.00
2019-03-23T07:19:16.741Z,74.50
2019-03-23T07:20:16.618Z,75.20
2019-03-23T07:21:16.585Z,73.90
2019-03-23T07:22:16.536Z,74.30
2019-03-23T07:23:16.497Z,73.50
2019-03-23T07:24:16.491Z,73.30
2019-03-23T07:25:16.427Z,75.30
2019-03-23T07:26:16.375Z,72.50
2019-03-23T07:27:16.323Z,71.80
2019-03-23T07:28:16.294Z,72.70
2019-03-23T07:29:16.253Z,69.90
2019-03-23T07:30:16.270Z,70.70
2019-03-23T07:31:16.190Z,70.40
2019-03-23T07:32:16.112Z,73.80
2019-03-23T07:33:16.079Z,72.10
2019-03-23T07:34:16.067Z,71.00
2019-03-23T07:35:16.039Z,70.90
2019-03-23T07:36:15.951Z,70.30
2019-03-23T07:37:15.954Z,68.60
2019-03-23T07:38:15.867Z,72.40
2019-03-23T07:39:26.484Z,72.80
2019-03-23T07:40:15.874Z,72.60
2019-03-23T07:41:15.789Z,71.90
2019-03-23T07:42:15.707Z,70.50
2019-03-23T07:43:15.656Z,70.70
2019-03-23T07:44:15.613Z,69.80
2019-03-23T07:45:15.568Z,69.60
2019-03-23T07:46:15.549Z,69.60
2019-03-23T07:47:15.532Z,70.40
2019-03-23T07:48:15.452Z,71.40
2019-03-23T07:49:15.432Z,70.40
2019-03-23T07:50:15.383Z,70.60
2019-03-23T07:51:15.354Z,68.60
2019-03-23T07:52:15.278Z,69.30
2019-03-23T07:53:15.239Z,68.50
2019-03-23T07:54:15.197Z,69.70
2019-03-23T07:55:15.158Z,71.80
2019-03-23T07:56:15.122Z,68.50
2019-03-23T07:57:15.101Z,68.90
2019-03-23T07:58:15.061Z,67.00
2019-03-23T07:59:14.988Z,69.90
2019-03-23T08:00:14.954Z,67.70
2019-03-23T08:01:14.915Z,66.20
2019-03-23T08:02:14.897Z,65.40
2019-03-23T08:03:14.857Z,64.80
2019-03-23T08:04:14.784Z,63.70
2019-03-23T08:05:14.797Z,63.10
2019-03-23T08:06:14.758Z,64.50
2019-03-23T08:07:14.663Z,62.30
2019-03-23T08:08:14.623Z,64.70
2019-03-23T08:09:20.395Z,62.90
2019-03-23T08:10:14.543Z,63.20
2019-03-23T08:11:14.523Z,64.30
2019-03-23T08:12:14.456Z,62.90
2019-03-23T08:13:14.475Z,64.10
2019-03-23T08:14:14.383Z,61.90
2019-03-23T08:15:14.337Z,63.50
2019-03-23T08:16:14.290Z,64.80
2019-03-23T08:17:14.249Z,63.10
2019-03-23T08:18:14.261Z,64.20
2019-03-23T08:19:14.185Z,61.60
2019-03-23T08:20:14.130Z,66.30
2019-03-23T08:21:14.089Z,64.80
2019-03-23T08:22:14.055Z,63.30
2019-03-23T08:23:14.003Z,65.90
2019-03-23T08:24:13.987Z,67.30
2019-03-23T08:25:13.918Z,64.30
2019-03-23T08:26:13.901Z,62.60
2019-03-23T08:27:13.836Z,63.40
2019-03-23T08:28:13.803Z,64.40
2019-03-23T08:29:13.766Z,63.80
2019-03-23T08:30:13.737Z,64.30
2019-03-23T08:31:13.723Z,63.10
2019-03-23T08:32:13.664Z,65.10
2019-03-23T08:33:13.604Z,62.80
2019-03-23T08:34:13.602Z,61.30
2019-03-23T08:35:13.521Z,64.50
2019-03-23T08:36:13.474Z,62.40
2019-03-23T08:37:13.622Z,62.80
2019-03-23T08:38:13.392Z,60.10
2019-03-23T08:39:13.378Z,63.10
2019-03-23T08:40:13.314Z,63.70
2019-03-23T08:41:13.285Z,60.80
2019-03-23T08:42:13.257Z,61.90
2019-03-23T08:43:13.197Z,61.00
2019-03-23T08:44:13.148Z,60.90
2019-03-23T08:45:13.105Z,60.60
2019-03-23T08:46:13.077Z,57.10
2019-03-23T08:47:13.064Z,57.10
2019-03-23T08:48:12.986Z,55.10
2019-03-23T08:49:12.944Z,53.70
2019-03-23T08:50:12.907Z,53.30
2019-03-23T08:51:12.866Z,55.10
2019-03-23T08:52:12.834Z,55.90
2019-03-23T08:53:12.823Z,55.10
2019-03-23T08:54:12.751Z,56.30
2019-03-23T08:55:12.720Z,55.70
2019-03-23T08:56:12.663Z,55.10
2019-03-23T08:57:12.625Z,54.20
2019-03-23T08:58:12.583Z,54.70
2019-03-23T08:59:12.598Z,52.90
2019-03-23T09:00:12.509Z,53.60
2019-03-23T09:01:12.475Z,53.70
2019-03-23T09:02:12.429Z,53.10
2019-03-23T09:03:12.402Z,52.20
2019-03-23T09:04:12.374Z,51.30
2019-03-23T09:05:12.309Z,49.90
2019-03-23T09:06:12.264Z,52.30
2019-03-23T09:07:12.231Z,50.80
2019-03-23T09:08:12.207Z,52.10
2019-03-23T09:09:12.139Z,51.60
2019-03-23T09:10:12.102Z,51.50
2019-03-23T09:11:20.178Z,52.50
2019-03-23T09:12:12.025Z,50.60
2019-03-23T09:13:12.018Z,51.00
2019-03-23T09:14:11.946Z,51.80
2019-03-23T09:15:11.903Z,52.80
2019-03-23T09:16:11.859Z,49.80
2019-03-23T09:17:11.819Z,51.20
2019-03-23T09:18:11.784Z,52.30
2019-03-23T09:19:11.764Z,51.90
2019-03-23T09:20:11.702Z,50.50
2019-03-23T09:21:12.975Z,51.90
2019-03-23T09:22:11.616Z,50.40
2019-03-23T09:23:11.599Z,51.60
2019-03-23T09:24:11.552Z,50.10
2019-03-23T09:25:11.526Z,51.40
2019-03-23T09:26:13.643Z,51.50
2019-03-23T09:27:12.658Z,51.60
2019-03-23T09:28:11.379Z,51.80
2019-03-23T09:29:11.360Z,50.20
2019-03-23T09:30:11.303Z,48.60
2019-03-23T09:31:11.276Z,51.40
2019-03-23T09:32:11.244Z,50.20
2019-03-23T09:33:11.189Z,52.80
2019-03-23T09:34:11.136Z,53.00
2019-03-23T09:35:11.095Z,51.00
2019-03-23T09:36:11.061Z,52.60
2019-03-23T09:37:11.055Z,51.80
2019-03-23T09:38:10.983Z,52.00
2019-03-23T09:39:10.968Z,50.90
2019-03-23T09:40:11.562Z,53.20
2019-03-23T09:41:10.972Z,50.50
2019-03-23T09:42:10.819Z,51.10
2019-03-23T09:43:10.778Z,51.70
2019-03-23T09:44:10.755Z,51.70
2019-03-23T09:45:10.774Z,51.70
2019-03-23T09:46:10.660Z,50.70
2019-03-23T09:47:10.721Z,52.60
2019-03-23T09:48:10.580Z,52.80
2019-03-23T09:49:10.587Z,51.40
2019-03-23T09:50:10.526Z,50.80
2019-03-23T09:51:10.462Z,51.90
2019-03-23T09:52:10.436Z,52.00
2019-03-23T09:53:10.371Z,52.10
2019-03-23T09:54:10.335Z,51.80
2019-03-23T09:55:10.297Z,51.70
2019-03-23T09:56:10.259Z,51.70
2019-03-23T09:57:10.263Z,50.20
2019-03-23T09:58:10.180Z,51.40
2019-03-23T09:59:10.138Z,51.70
2019-03-23T10:00:10.125Z,51.70
2019-03-23T10:01:10.053Z,51.90
2019-03-23T10:02:10.042Z,51.60
2019-03-23T10:03:09.972Z,52.30
2019-03-23T10:04:09.939Z,51.60
2019-03-23T10:05:09.899Z,51.40
2019-03-23T10:06:09.875Z,51.10
2019-03-23T10:07:09.813Z,50.30
2019-03-23T10:08:10.003Z,50.00
2019-03-23T10:09:09.965Z,50.10
2019-03-23T10:10:09.711Z,49.70
2019-03-23T10:11:09.679Z,50.30
2019-03-23T10:12:09.610Z,51.50
2019-03-23T10:13:09.568Z,49.90
2019-03-23T10:14:09.534Z,51.30
2019-03-23T10:15:09.725Z,50.10
2019-03-23T10:16:09.478Z,51.80
2019-03-23T10:17:09.413Z,50.50
2019-03-23T10:18:09.377Z,51.00
2019-03-23T10:19:09.340Z,50.60
2019-03-23T10:20:09.291Z,48.90
2019-03-23T10:21:09.273Z,50.70
2019-03-23T10:22:09.216Z,49.90
2019-03-23T10:23:09.197Z,50.30
2019-03-23T10:24:09.127Z,49.40
2019-03-23T10:25:09.085Z,49.50
2019-03-23T10:26:09.076Z,50.00
2019-03-23T10:27:09.007Z,48.90
2019-03-23T10:28:09.053Z,49.30
2019-03-23T10:29:08.950Z,49.20
2019-03-23T10:30:08.894Z,49.90
2019-03-23T10:31:08.850Z,50.30
2019-03-23T10:32:08.826Z,48.70
2019-03-23T10:33:09.107Z,49.50
2019-03-23T10:34:08.723Z,49.70
2019-03-23T10:35:08.763Z,48.90
2019-03-23T10:36:08.671Z,49.00
2019-03-23T10:37:08.686Z,49.40
2019-03-23T10:38:08.561Z,50.20
2019-03-23T10:39:08.530Z,48.60
2019-03-23T10:40:08.487Z,49.00
2019-03-23T10:41:08.450Z,48.90
2019-03-23T10:42:08.796Z,48.60
2019-03-23T10:43:08.394Z,48.70
2019-03-23T10:44:08.320Z,48.70
2019-03-23T10:45:08.282Z,48.80
2019-03-23T10:46:08.295Z,48.70
2019-03-23T10:47:08.266Z,48.60
2019-03-23T10:48:08.191Z,47.00
2019-03-23T10:49:08.130Z,46.00
2019-03-23T10:50:08.085Z,46.10
2019-03-23T10:51:08.044Z,45.10
2019-03-23T10:52:07.996Z,45.90
2019-03-23T10:53:07.960Z,46.10
2019-03-23T10:54:07.946Z,45.20
2019-03-23T10:55:07.881Z,45.40
2019-03-23T10:56:07.858Z,45.70
2019-03-23T10:57:07.798Z,46.30
2019-03-23T10:58:07.800Z,46.00
2019-03-23T10:59:07.724Z,47.40
2019-03-23T11:00:07.706Z,45.50
2019-03-23T11:01:07.645Z,46.50
2019-03-23T11:02:07.603Z,46.10
2019-03-23T11:03:07.564Z,46.20
2019-03-23T11:04:07.517Z,46.50
2019-03-23T11:05:07.510Z,49.20
2019-03-23T11:06:07.445Z,50.80
2019-03-23T11:07:07.485Z,50.30
2019-03-23T11:08:07.399Z,50.60
2019-03-23T11:09:07.328Z,51.00
2019-03-23T11:10:07.289Z,50.70
2019-03-23T11:11:07.248Z,50.80
2019-03-23T11:12:07.212Z,49.40
2019-03-23T11:13:07.173Z,50.60
2019-03-23T11:14:07.162Z,52.60
2019-03-23T11:15:07.118Z,52.60
2019-03-23T11:16:07.092Z,51.90
2019-03-23T11:17:07.012Z,51.50
2019-03-23T11:18:06.982Z,50.80
2019-03-23T11:19:13.350Z,51.00
2019-03-23T11:20:06.941Z,51.20
2019-03-23T11:21:06.876Z,50.30
2019-03-23T11:22:06.833Z,49.60
2019-03-23T11:23:06.788Z,51.80
2019-03-23T11:24:06.743Z,51.30
2019-03-23T11:25:06.729Z,50.20
2019-03-23T11:26:06.697Z,51.20
2019-03-23T11:27:06.646Z,50.00
2019-03-23T11:28:06.591Z,49.70
2019-03-23T11:29:08.350Z,50.70
2019-03-23T11:30:06.546Z,50.70
2019-03-23T11:31:06.483Z,50.50
2019-03-23T11:32:06.453Z,51.30
2019-03-23T11:33:06.413Z,51.80
2019-03-23T11:34:06.378Z,51.60
2019-03-23T11:35:08.083Z,50.80
2019-03-23T11:36:06.293Z,51.00
2019-03-23T11:37:06.332Z,52.40
2019-03-23T11:38:06.342Z,53.10
2019-03-23T11:39:06.184Z,50.50
2019-03-23T11:40:06.182Z,50.90
2019-03-23T11:41:06.115Z,50.90
2019-03-23T11:42:06.074Z,50.60
2019-03-23T11:43:06.043Z,50.90
2019-03-23T11:44:06.005Z,52.00
2019-03-23T11:45:05.978Z,51.50
2019-03-23T11:46:05.967Z,51.20
2019-03-23T11:47:05.896Z,49.90
2019-03-23T11:48:05.871Z,50.20
2019-03-23T11:49:05.816Z,50.50
2019-03-23T11:50:05.778Z,50.00
2019-03-23T11:51:05.743Z,49.20
2019-03-23T11:52:05.737Z,48.70
2019-03-23T11:53:05.673Z,48.30
2019-03-23T11:54:05.647Z,49.40
2019-03-23T11:55:05.609Z,48.70
2019-03-23T11:56:05.574Z,48.70
2019-03-23T11:57:05.545Z,48.10
2019-03-23T11:58:05.497Z,47.20
2019-03-23T11:59:05.465Z,47.50
2019-03-23T12:00:05.417Z,46.60
2019-03-23T12:01:05.382Z,46.80
2019-03-23T12:02:05.365Z,46.80
2019-03-23T12:03:05.306Z,44.90
2019-03-23T12:04:05.293Z,45.50
2019-03-23T12:05:05.244Z,46.40
2019-03-23T12:06:05.207Z,45.80
2019-03-23T12:07:05.196Z,46.20
2019-03-23T12:08:05.154Z,45.80
2019-03-23T12:09:05.094Z,46.30
2019-03-23T12:10:05.056Z,47.20
2019-03-23T12:11:05.021Z,46.10
2019-03-23T12:12:04.991Z,44.80
2019-03-23T12:13:04.954Z,46.20
2019-03-23T12:14:04.940Z,45.20
2019-03-23T12:15:04.876Z,45.80
2019-03-23T12:16:04.844Z,45.70
2019-03-23T12:17:04.809Z,45.90
2019-03-23T12:18:04.776Z,46.30
2019-03-23T12:19:04.770Z,45.40
2019-03-23T12:20:04.712Z,46.30
2019-03-23T12:21:04.655Z,46.10
2019-03-23T12:22:04.620Z,46.60
2019-03-23T12:23:04.585Z,45.70
2019-03-23T12:24:05.255Z,46.00
2019-03-23T12:25:04.543Z,44.70
2019-03-23T12:26:04.486Z,45.50
2019-03-23T12:27:04.444Z,46.30
2019-03-23T12:28:04.407Z,46.00
2019-03-23T12:29:04.365Z,46.00
2019-03-23T12:30:07.511Z,46.00
2019-03-23T12:31:04.334Z,45.90
2019-03-23T12:32:04.256Z,46.70
2019-03-23T12:33:04.218Z,46.00
2019-03-23T12:34:04.202Z,45.90
2019-03-23T12:35:04.164Z,45.70
2019-03-23T12:36:04.113Z,44.10
2019-03-23T12:37:04.077Z,45.20
2019-03-23T12:38:04.037Z,43.70
2019-03-23T12:39:04.025Z,45.40
2019-03-23T12:40:03.955Z,44.50
2019-03-23T12:41:14.398Z,46.00
2019-03-23T12:42:03.885Z,44.60
2019-03-23T12:43:03.845Z,46.20
2019-03-23T12:44:03.827Z,45.40
2019-03-23T12:45:03.796Z,44.70
2019-03-23T12:46:03.752Z,46.00
2019-03-23T12:47:03.695Z,46.30
2019-03-23T12:48:03.664Z,47.00
2019-03-23T12:49:03.632Z,46.40
2019-03-23T12:50:03.617Z,46.60
2019-03-23T12:51:03.554Z,46.80